Gatewood, Missouri
Current Conditions -  °F | °C
As of 3:55 PM on Monday 24 Nov 2014 (Local Time) from KARG Reporting Station
Clear Clear  
Wind Chill: 55°   Ceiling: Unl
Heat Index: 55°   Visibility: 10mi
Dew Point: 25°   Wind: 12mph
Humidity: 31%   Direction: 260°W
Pressure: 29.86"   Gusts: 21mph
Location:  36.58°N, 91.09°W
Report Text: KARG 242155Z AUTO 26010G18KT 10SM CLR 13/M04 A2986 RMK AO1
Loading
Personal Weather Stations






























Interactive Weather Map New forecast layout! Learn more

10-Day Weather Forecast

Advertisements
Track Severe Weather on mobile